createdAt,value
2023-04-26T05:57:35.650Z,98420.00
2023-04-26T06:03:24.747Z,98422.00
2023-04-26T06:09:50.206Z,98428.00
2023-04-26T06:16:49.180Z,98430.00
2023-04-26T06:19:16.640Z,98424.00
2023-04-26T06:25:22.930Z,98443.00
2023-04-26T06:27:50.481Z,98435.00
2023-04-26T06:30:18.163Z,98431.00
2023-04-26T06:32:46.134Z,98433.00
2023-04-26T06:35:13.633Z,98427.00
2023-04-26T06:37:41.155Z,98437.00
2023-04-26T06:40:09.848Z,98435.00
2023-04-26T06:42:37.547Z,98437.00
2023-04-26T06:45:05.826Z,98433.00
2023-04-26T06:47:33.346Z,98429.00
2023-04-26T06:50:01.305Z,98423.00
2023-04-26T06:52:30.107Z,98426.00
2023-04-26T06:54:57.941Z,98427.00
2023-04-26T06:57:26.159Z,98422.00
2023-04-26T06:59:53.619Z,98423.00
2023-04-26T07:02:23.703Z,98426.00
2023-04-26T07:04:51.740Z,98417.00
2023-04-26T07:07:19.395Z,98413.00
2023-04-26T07:09:46.882Z,98421.00
2023-04-26T07:12:14.808Z,98424.00
2023-04-26T07:14:43.503Z,98415.00
2023-04-26T07:17:11.544Z,98419.00
2023-04-26T07:19:39.105Z,98415.00
2023-04-26T07:22:06.709Z,98410.00
2023-04-26T07:24:34.184Z,98412.00
2023-04-26T07:27:02.188Z,98418.00
2023-04-26T07:29:29.731Z,98418.00
2023-04-26T07:31:59.015Z,98412.00
2023-04-26T07:34:26.437Z,98411.00
2023-04-26T07:36:54.044Z,98414.00
2023-04-26T07:39:21.548Z,98417.00
2023-04-26T07:41:48.969Z,98396.00
2023-04-26T07:44:16.492Z,98420.00
2023-04-26T07:46:43.991Z,98405.00
2023-04-26T07:49:11.608Z,98404.00
2023-04-26T07:51:39.171Z,98404.00
2023-04-26T07:54:06.614Z,98402.00
2023-04-26T07:56:34.047Z,98393.00
2023-04-26T07:59:01.618Z,98407.00
2023-04-26T08:01:29.177Z,98400.00
2023-04-26T08:03:57.155Z,98407.00
2023-04-26T08:06:25.274Z,98388.00
2023-04-26T08:08:53.946Z,98406.00
2023-04-26T08:11:21.957Z,98396.00
2023-04-26T08:13:49.498Z,98410.00
2023-04-26T08:16:17.051Z,98403.00
2023-04-26T08:18:46.752Z,98405.00
2023-04-26T08:21:14.911Z,98400.00
2023-04-26T08:23:42.387Z,98386.00
2023-04-26T08:26:09.963Z,98392.00
2023-04-26T08:28:38.142Z,98399.00
2023-04-26T08:31:05.790Z,98391.00
2023-04-26T08:33:33.388Z,98394.00
2023-04-26T08:36:03.884Z,98399.00
2023-04-26T08:38:32.653Z,98395.00
2023-04-26T08:41:03.573Z,98399.00
2023-04-26T08:43:31.002Z,98414.00
2023-04-26T08:46:01.002Z,98404.00
2023-04-26T08:48:32.860Z,98398.00
2023-04-26T08:51:02.018Z,98411.00
2023-04-26T08:53:30.506Z,98399.00
2023-04-26T08:55:58.375Z,98397.00
2023-04-26T08:58:27.178Z,98406.00
2023-04-26T09:00:54.976Z,98396.00
2023-04-26T09:03:26.509Z,98394.00
2023-04-26T09:05:55.740Z,98400.00
2023-04-26T09:08:23.440Z,98406.00
2023-04-26T09:10:51.678Z,98404.00
2023-04-26T09:13:19.191Z,98400.00
2023-04-26T09:15:49.745Z,98394.00
2023-04-26T09:18:23.598Z,98403.00
2023-04-26T09:21:06.504Z,98409.00
2023-04-26T09:23:34.314Z,98403.00
2023-04-26T09:26:22.515Z,98395.00
2023-04-26T09:28:50.944Z,98398.00
2023-04-26T09:31:49.772Z,98408.00
2023-04-26T09:34:17.808Z,98403.00
2023-04-26T09:36:57.266Z,98402.00
2023-04-26T09:39:41.458Z,98405.00
2023-04-26T09:42:11.513Z,98405.00
2023-04-26T09:44:39.811Z,98407.00
2023-04-26T09:47:12.476Z,98409.00
2023-04-26T09:49:51.602Z,98407.00
2023-04-26T09:52:20.162Z,98410.00
2023-04-26T09:54:52.523Z,98404.00
2023-04-26T09:57:22.516Z,98402.00
2023-04-26T09:59:55.575Z,98399.00
2023-04-26T10:02:28.495Z,98409.00
2023-04-26T10:05:00.183Z,98401.00
2023-04-26T10:07:30.407Z,98387.00
2023-04-26T10:09:58.469Z,98394.00
2023-04-26T10:12:26.123Z,98392.00
2023-04-26T10:14:54.132Z,98394.00
2023-04-26T10:17:21.975Z,98398.00
2023-04-26T10:19:57.932Z,98390.00
2023-04-26T10:22:34.160Z,98387.00
2023-04-26T10:25:01.769Z,98390.00
2023-04-26T10:27:44.609Z,98388.00
2023-04-26T10:30:23.278Z,98385.00
2023-04-26T10:32:56.416Z,98385.00
2023-04-26T10:35:29.351Z,98388.00
2023-04-26T10:38:02.716Z,98399.00
2023-04-26T10:40:40.380Z,98376.00
2023-04-26T10:43:16.242Z,98384.00
2023-04-26T10:45:49.495Z,98387.00
2023-04-26T10:48:31.861Z,98382.00
2023-04-26T10:51:02.512Z,98371.00
2023-04-26T10:53:46.795Z,98385.00
2023-04-26T10:56:43.636Z,98377.00
2023-04-26T10:59:36.442Z,98381.00
2023-04-26T11:02:13.723Z,98376.00
2023-04-26T11:04:53.723Z,98364.00
2023-04-26T11:07:38.446Z,98367.00
2023-04-26T11:10:22.505Z,98369.00
2023-04-26T11:13:03.497Z,98359.00
2023-04-26T11:15:36.261Z,98360.00
2023-04-26T11:18:05.235Z,98373.00
2023-04-26T11:20:34.409Z,98360.00
2023-04-26T11:23:02.736Z,98355.00
2023-04-26T11:25:30.608Z,98359.00
2023-04-26T11:28:05.708Z,98353.00
2023-04-26T11:30:33.930Z,98342.00
2023-04-26T11:33:06.744Z,98345.00
2023-04-26T11:35:36.594Z,98357.00
2023-04-26T11:38:05.897Z,98346.00
2023-04-26T11:40:37.484Z,98340.00
2023-04-26T11:43:06.381Z,98342.00
2023-04-26T11:45:37.320Z,98348.00
2023-04-26T11:48:10.645Z,98339.00
2023-04-26T11:50:39.498Z,98338.00
2023-04-26T11:53:09.134Z,98325.00
2023-04-26T11:55:36.920Z,98333.00
2023-04-26T11:58:15.401Z,98330.00
2023-04-26T12:01:02.104Z,98328.00
2023-04-26T12:03:38.397Z,98326.00
2023-04-26T12:06:06.730Z,98335.00
2023-04-26T12:08:34.394Z,98322.00
2023-04-26T12:11:05.743Z,98323.00
2023-04-26T12:13:33.312Z,98323.00
2023-04-26T12:16:01.125Z,98320.00
2023-04-26T12:18:40.712Z,98327.00
2023-04-26T12:21:09.311Z,98331.00
2023-04-26T12:23:40.384Z,98335.00
2023-04-26T12:26:11.202Z,98327.00
2023-04-26T12:28:38.831Z,98318.00
2023-04-26T12:31:07.588Z,98327.00
2023-04-26T12:33:36.073Z,98319.00
2023-04-26T12:36:12.827Z,98332.00
2023-04-26T12:38:40.815Z,98332.00
2023-04-26T12:41:08.332Z,98333.00
2023-04-26T12:43:36.799Z,98327.00
2023-04-26T12:46:04.595Z,98309.00
2023-04-26T12:48:32.350Z,98317.00
2023-04-26T12:51:00.395Z,98320.00
2023-04-26T12:53:27.899Z,98333.00
2023-04-26T12:55:55.435Z,98334.00
2023-04-26T12:58:23.012Z,98329.00
2023-04-26T13:00:51.358Z,98324.00
2023-04-26T13:03:19.001Z,98326.00
2023-04-26T13:05:46.822Z,98291.00
2023-04-26T13:08:14.684Z,98297.00
2023-04-26T13:10:42.392Z,98318.00
2023-04-26T13:13:09.983Z,98302.00
2023-04-26T13:15:37.563Z,98297.00
2023-04-26T13:18:05.462Z,98294.00
2023-04-26T13:20:33.072Z,98284.00
2023-04-26T13:23:00.480Z,98297.00
2023-04-26T13:25:28.167Z,98308.00
2023-04-26T13:27:55.700Z,98300.00
2023-04-26T13:30:23.227Z,98308.00
2023-04-26T13:32:50.919Z,98306.00
2023-04-26T13:35:18.420Z,98302.00
2023-04-26T13:37:46.509Z,98301.00
2023-04-26T13:40:14.174Z,98304.00
2023-04-26T13:42:42.824Z,98309.00
2023-04-26T13:45:11.260Z,98316.00
2023-04-26T13:47:39.798Z,98313.00
2023-04-26T13:50:07.918Z,98318.00
2023-04-26T13:52:36.418Z,98317.00
2023-04-26T13:55:04.515Z,98318.00
2023-04-26T13:57:32.547Z,98310.00
2023-04-26T14:00:00.006Z,98311.00
2023-04-26T14:02:27.657Z,98301.00
2023-04-26T14:04:56.053Z,98317.00
2023-04-26T14:07:23.707Z,98311.00
2023-04-26T14:09:52.139Z,98310.00
2023-04-26T14:12:19.646Z,98310.00
2023-04-26T14:14:48.054Z,98318.00
2023-04-26T14:17:15.548Z,98319.00
2023-04-26T14:19:43.095Z,98312.00
2023-04-26T14:22:12.934Z,98309.00
2023-04-26T14:24:40.861Z,98300.00
2023-04-26T14:27:09.219Z,98295.00
2023-04-26T14:29:36.690Z,98282.00
2023-04-26T14:32:04.421Z,98285.00
2023-04-26T14:34:32.002Z,98292.00
2023-04-26T14:37:01.744Z,98290.00
2023-04-26T14:39:29.384Z,98270.00
2023-04-26T14:41:57.030Z,98284.00
2023-04-26T14:44:25.688Z,98294.00
2023-04-26T14:46:53.597Z,98296.00
2023-04-26T14:49:21.260Z,98294.00
2023-04-26T14:51:49.399Z,98294.00
2023-04-26T14:54:18.348Z,98293.00
2023-04-26T14:56:46.449Z,98280.00
2023-04-26T14:59:13.995Z,98287.00
2023-04-26T15:01:41.684Z,98279.00
2023-04-26T15:04:09.503Z,98279.00
2023-04-26T15:06:37.254Z,98283.00
2023-04-26T15:09:07.256Z,98289.00
2023-04-26T15:11:35.601Z,98285.00
2023-04-26T15:14:03.114Z,98284.00
2023-04-26T15:16:31.347Z,98285.00
2023-04-26T15:18:59.106Z,98274.00
2023-04-26T15:24:28.535Z,98284.00
2023-04-26T15:26:56.202Z,98282.00
2023-04-26T15:29:23.688Z,98290.00
2023-04-26T15:31:51.617Z,98285.00
2023-04-26T15:34:19.150Z,98280.00
2023-04-26T15:36:46.598Z,98266.00
2023-04-26T15:39:14.060Z,98283.00
2023-04-26T15:41:41.690Z,98279.00
2023-04-26T15:44:09.196Z,98282.00
2023-04-26T15:46:38.171Z,98281.00
2023-04-26T15:49:06.126Z,98282.00
2023-04-26T15:51:33.772Z,98275.00
2023-04-26T15:54:01.592Z,98284.00
2023-04-26T15:56:29.092Z,98266.00
2023-04-26T15:58:57.466Z,98271.00
2023-04-26T16:01:25.142Z,98280.00
2023-04-26T16:03:53.196Z,98283.00
2023-04-26T16:06:20.982Z,98272.00
2023-04-26T16:08:48.500Z,98279.00
2023-04-26T16:11:15.979Z,98279.00
2023-04-26T16:13:44.633Z,98274.00
2023-04-26T16:16:12.630Z,98269.00
2023-04-26T16:18:40.551Z,98280.00
2023-04-26T16:21:10.042Z,98274.00
2023-04-26T16:23:38.710Z,98274.00
2023-04-26T16:26:06.595Z,98265.00
2023-04-26T16:28:34.403Z,98267.00
2023-04-26T16:31:02.156Z,98279.00
2023-04-26T16:33:29.850Z,98288.00
2023-04-26T16:35:57.433Z,98283.00
2023-04-26T16:38:25.008Z,98288.00
2023-04-26T16:41:01.741Z,98275.00
2023-04-26T16:43:32.141Z,98278.00
2023-04-26T16:46:05.427Z,98283.00
2023-04-26T16:48:38.662Z,98284.00
2023-04-26T16:51:08.102Z,98283.00
2023-04-26T16:53:37.145Z,98282.00
2023-04-26T16:56:05.673Z,98280.00
2023-04-26T16:58:33.132Z,98270.00
2023-04-26T17:01:01.055Z,98267.00
2023-04-26T17:03:29.578Z,98265.00
2023-04-26T17:05:57.895Z,98264.00
2023-04-26T17:08:25.987Z,98275.00
2023-04-26T17:10:53.508Z,98286.00
2023-04-26T17:13:21.215Z,98280.00
2023-04-26T17:15:48.999Z,98272.00
2023-04-26T17:18:16.641Z,98274.00
2023-04-26T17:20:44.997Z,98275.00
2023-04-26T17:23:12.396Z,98283.00
2023-04-26T17:25:39.945Z,98289.00
2023-04-26T17:28:07.410Z,98293.00
2023-04-26T17:30:34.923Z,98302.00
2023-04-26T17:33:02.905Z,98295.00
2023-04-26T17:35:30.982Z,98303.00
2023-04-26T17:37:58.450Z,98302.00
2023-04-26T17:40:26.201Z,98300.00
2023-04-26T17:42:53.695Z,98292.00
2023-04-26T17:45:21.319Z,98303.00
2023-04-26T17:47:48.946Z,98298.00
2023-04-26T17:50:17.901Z,98295.00
2023-04-26T17:52:45.726Z,98294.00
2023-04-26T17:55:13.406Z,98294.00
2023-04-26T17:57:41.108Z,98297.00
2023-04-26T18:00:10.384Z,98303.00
2023-04-26T18:02:38.433Z,98299.00
2023-04-26T18:05:11.833Z,98298.00
2023-04-26T18:07:49.068Z,98304.00
2023-04-26T18:10:53.145Z,98310.00
2023-04-26T18:13:22.302Z,98306.00
2023-04-26T18:16:23.239Z,98311.00
2023-04-26T18:18:54.963Z,98310.00
2023-04-26T18:21:54.286Z,98307.00
2023-04-26T18:24:29.230Z,98307.00
2023-04-26T18:26:57.705Z,98310.00
2023-04-26T18:29:38.262Z,98319.00
2023-04-26T18:32:14.407Z,98318.00
2023-04-26T18:35:14.685Z,98324.00
2023-04-26T18:37:44.821Z,98333.00
2023-04-26T18:41:01.160Z,98341.00
2023-04-26T18:43:40.100Z,98336.00
2023-04-26T18:46:07.681Z,98339.00
2023-04-26T18:48:35.176Z,98333.00
2023-04-26T18:51:02.761Z,98336.00
2023-04-26T18:53:30.303Z,98336.00
2023-04-26T18:55:57.809Z,98337.00
2023-04-26T18:58:25.232Z,98350.00
2023-04-26T19:00:53.633Z,98354.00
2023-04-26T19:03:21.627Z,98355.00
2023-04-26T19:05:49.383Z,98358.00
2023-04-26T19:08:16.980Z,98350.00
2023-04-26T19:10:44.364Z,98355.00
2023-04-26T19:13:11.864Z,98361.00
2023-04-26T19:15:39.346Z,98357.00
2023-04-26T19:18:07.019Z,98361.00
2023-04-26T19:20:34.551Z,98359.00
2023-04-26T19:23:02.126Z,98370.00
2023-04-26T19:25:30.585Z,98362.00
2023-04-26T19:27:58.211Z,98376.00
2023-04-26T19:30:25.871Z,98377.00
2023-04-26T19:32:53.363Z,98377.00
2023-04-26T19:35:20.897Z,98376.00
2023-04-26T19:37:48.379Z,98377.00
2023-04-26T19:40:15.951Z,98368.00
2023-04-26T19:42:43.432Z,98379.00
2023-04-26T19:45:12.002Z,98375.00
2023-04-26T19:47:42.723Z,98381.00
2023-04-26T19:50:11.349Z,98380.00
2023-04-26T19:52:41.585Z,98389.00
2023-04-26T19:55:10.572Z,98387.00
2023-04-26T19:57:38.070Z,98385.00
2023-04-26T20:00:08.270Z,98388.00
2023-04-26T20:02:35.910Z,98392.00
2023-04-26T20:05:03.984Z,98393.00
2023-04-26T20:07:31.762Z,98393.00
2023-04-26T20:09:59.270Z,98395.00
2023-04-26T20:12:26.723Z,98386.00
2023-04-26T20:14:54.162Z,98384.00
2023-04-26T20:17:21.736Z,98388.00
2023-04-26T20:19:49.335Z,98388.00
2023-04-26T20:22:16.911Z,98398.00
2023-04-26T20:24:44.587Z,98404.00
2023-04-26T20:27:12.212Z,98401.00
2023-04-26T20:29:39.639Z,98407.00
2023-04-26T20:32:07.354Z,98410.00
2023-04-26T20:34:34.911Z,98399.00
2023-04-26T20:37:02.433Z,98400.00
2023-04-26T20:39:33.708Z,98398.00
2023-04-26T20:42:01.604Z,98402.00
2023-04-26T20:44:30.034Z,98393.00
2023-04-26T20:46:57.943Z,98392.00
2023-04-26T20:49:25.444Z,98394.00
2023-04-26T20:51:52.906Z,98400.00
2023-04-26T20:54:21.006Z,98395.00
2023-04-26T20:56:48.474Z,98399.00
2023-04-26T20:59:15.981Z,98400.00
2023-04-26T21:01:43.592Z,98404.00
2023-04-26T21:04:11.338Z,98401.00
2023-04-26T21:06:39.253Z,98401.00
2023-04-26T21:09:07.436Z,98399.00
2023-04-26T21:11:35.013Z,98406.00
2023-04-26T21:14:02.511Z,98404.00
2023-04-26T21:16:30.788Z,98408.00
2023-04-26T21:18:58.276Z,98406.00
2023-04-26T21:21:28.267Z,98400.00
2023-04-26T21:23:56.010Z,98408.00
2023-04-26T21:26:23.645Z,98409.00
2023-04-26T21:28:51.142Z,98413.00
2023-04-26T21:31:19.130Z,98412.00
2023-04-26T21:33:46.637Z,98399.00
2023-04-26T21:36:14.068Z,98404.00
2023-04-26T21:38:41.562Z,98407.00
2023-04-26T21:41:08.991Z,98408.00
2023-04-26T21:43:36.613Z,98406.00
2023-04-26T21:46:04.125Z,98403.00
2023-04-26T21:48:31.710Z,98403.00
2023-04-26T21:50:59.293Z,98392.00
2023-04-26T21:53:27.251Z,98401.00
2023-04-26T21:55:54.986Z,98412.00
2023-04-26T21:58:23.332Z,98406.00
2023-04-26T22:00:51.815Z,98407.00
2023-04-26T22:03:19.998Z,98401.00
2023-04-26T22:05:47.619Z,98411.00
2023-04-26T22:08:15.116Z,98421.00
2023-04-26T22:10:42.623Z,98425.00
2023-04-26T22:13:10.085Z,98417.00
2023-04-26T22:15:37.514Z,98426.00
2023-04-26T22:18:05.252Z,98425.00
2023-04-26T22:20:32.840Z,98434.00
2023-04-26T22:23:00.297Z,98421.00
2023-04-26T22:25:27.782Z,98426.00
2023-04-26T22:27:56.165Z,98422.00
2023-04-26T22:30:25.644Z,98421.00
2023-04-26T22:32:57.516Z,98426.00
2023-04-26T22:35:28.039Z,98425.00
2023-04-26T22:37:56.255Z,98430.00
2023-04-26T22:40:23.779Z,98424.00
2023-04-26T22:42:51.367Z,98433.00
2023-04-26T22:45:19.130Z,98430.00
2023-04-26T22:47:46.734Z,98437.00
2023-04-26T22:50:14.300Z,98435.00
2023-04-26T22:52:41.757Z,98431.00
2023-04-26T22:55:09.980Z,98437.00
2023-04-26T22:57:37.768Z,98436.00
2023-04-26T23:00:10.084Z,98442.00
2023-04-26T23:02:37.721Z,98443.00
2023-04-26T23:05:09.611Z,98444.00
2023-04-26T23:07:39.800Z,98452.00
2023-04-26T23:10:08.390Z,98452.00
2023-04-26T23:12:36.801Z,98444.00
2023-04-26T23:15:06.111Z,98447.00
2023-04-26T23:17:34.427Z,98447.00
2023-04-26T23:20:02.110Z,98457.00
2023-04-26T23:22:29.622Z,98451.00
2023-04-26T23:24:57.207Z,98439.00
2023-04-26T23:27:24.922Z,98445.00
2023-04-26T23:29:56.830Z,98444.00
2023-04-26T23:32:24.286Z,98438.00
2023-04-26T23:34:51.865Z,98431.00
2023-04-26T23:37:19.324Z,98434.00
2023-04-26T23:39:46.795Z,98446.00
2023-04-26T23:42:14.215Z,98438.00
2023-04-26T23:44:41.656Z,98437.00
2023-04-26T23:47:09.168Z,98436.00
2023-04-26T23:49:36.661Z,98441.00
2023-04-26T23:52:04.480Z,98441.00
2023-04-26T23:54:31.967Z,98433.00
2023-04-26T23:56:59.500Z,98437.00
